Time;durP1;ratioP1;P1;durP2;ratioP2;P2;SDS_P1;SDS_P2;PMS_P1;PMS_P2;Temp;Humidity;BMP_temperature;BMP_pressure;BME280_temperature;BME280_humidity;BME280_pressure;Samples;Min_cycle;Max_cycle;Signal;HPM_P1;HPM_P2
2022/07/12 00:01:42;;;;;;;2.40;1.02;;;;;;;23.53;51.80;102355.66;5137386;27;20110;-63
2022/07/12 00:04:17;;;;;;;2.40;1.30;;;;;;;23.53;51.36;102360.13;5136925;27;20098;-63
2022/07/12 00:06:42;;;;;;;2.10;1.10;;;;;;;23.52;51.61;102356.59;5136418;27;20106;-63
2022/07/12 00:09:07;;;;;;;2.75;1.02;;;;;;;23.52;51.55;102358.44;5136677;27;20438;-63
2022/07/12 00:11:35;;;;;;;2.90;1.20;;;;;;;23.52;51.42;102347.78;5137063;27;20122;-63
2022/07/12 00:14:00;;;;;;;1.77;0.90;;;;;;;23.52;51.29;102345.13;5136146;27;20303;-63
2022/07/12 00:16:26;;;;;;;2.50;1.00;;;;;;;23.50;51.42;102345.25;5137072;27;20058;-63
2022/07/12 00:18:54;;;;;;;3.80;1.23;;;;;;;23.51;51.27;102344.28;5136383;27;20030;-63
2022/07/12 00:21:19;;;;;;;2.78;1.20;;;;;;;23.49;51.39;102332.91;5136832;27;20327;-63
2022/07/12 00:23:44;;;;;;;2.25;1.00;;;;;;;23.49;51.26;102335.56;5136697;27;20031;-63
2022/07/12 00:26:12;;;;;;;4.30;1.10;;;;;;;23.49;51.45;102340.88;5135677;27;20027;-63
2022/07/12 00:28:38;;;;;;;3.83;1.10;;;;;;;23.47;51.49;102345.50;5136820;27;20332;-63
2022/07/12 00:31:04;;;;;;;2.67;1.00;;;;;;;23.46;51.32;102345.63;5136697;27;20110;-63
2022/07/12 00:33:29;;;;;;;1.45;0.98;;;;;;;23.47;51.55;102349.97;5136013;27;20027;-65
2022/07/12 00:35:55;;;;;;;2.65;1.10;;;;;;;23.46;51.30;102350.94;5136266;27;20025;-64
2022/07/12 00:38:21;;;;;;;3.03;1.17;;;;;;;23.44;51.41;102343.09;5136647;27;20490;-64
2022/07/12 00:40:46;;;;;;;3.10;1.00;;;;;;;23.43;51.67;102346.72;5135911;27;20463;-63
2022/07/12 00:43:14;;;;;;;2.33;1.02;;;;;;;23.41;51.33;102346.00;5136275;27;20384;-63
2022/07/12 00:45:39;;;;;;;2.80;1.20;;;;;;;23.42;51.49;102346.84;5136516;27;20083;-64
2022/07/12 00:48:06;;;;;;;2.03;0.90;;;;;;;23.40;51.60;102343.44;5135394;27;20412;-63
2022/07/12 00:50:33;;;;;;;2.58;1.10;;;;;;;23.39;51.35;102345.28;5136213;27;20320;-65
2022/07/12 00:52:58;;;;;;;2.33;1.00;;;;;;;23.34;51.24;102334.16;5135942;27;20023;-64
2022/07/12 00:55:30;;;;;;;2.05;1.05;;;;;;;23.37;51.75;102341.91;5134566;27;20382;-63
2022/07/12 00:57:55;;;;;;;2.13;1.20;;;;;;;23.40;51.42;102338.13;5136122;27;20028;-63
2022/07/12 01:00:24;;;;;;;1.53;1.00;;;;;;;23.39;51.21;102333.81;5136513;27;20023;-66
2022/07/12 01:02:51;;;;;;;2.25;1.00;;;;;;;23.39;51.50;102344.44;5135189;27;20286;-65
2022/07/12 01:05:16;;;;;;;2.03;1.02;;;;;;;23.39;51.12;102344.44;5136142;27;20058;-65
2022/07/12 01:07:43;;;;;;;2.33;0.90;;;;;;;23.38;51.02;102342.75;5136341;27;20035;-65
2022/07/12 01:10:09;;;;;;;2.15;1.05;;;;;;;23.39;51.22;102344.44;5134097;27;20789;-65
2022/07/12 01:12:34;;;;;;;2.60;1.10;;;;;;;23.38;51.05;102340.91;5136250;27;20116;-66
2022/07/12 01:15:01;;;;;;;3.75;1.08;;;;;;;23.37;51.26;102347.22;5135686;27;20019;-65
2022/07/12 01:17:30;;;;;;;2.85;1.00;;;;;;;23.35;51.10;102344.69;5135180;27;20046;-66
2022/07/12 01:19:57;;;;;;;2.00;1.00;;;;;;;23.38;51.28;102345.41;5135834;27;20030;-65
2022/07/12 01:22:53;;;;;;;2.10;1.00;;;;;;;23.37;51.11;102347.22;5135152;27;20109;-65
2022/07/12 01:25:18;;;;;;;2.38;1.10;;;;;;;23.38;51.09;102348.06;5133551;27;20042;-65
2022/07/12 01:27:43;;;;;;;4.07;1.20;;;;;;;23.36;51.05;102349.00;5135778;27;20019;-64
2022/07/12 01:30:09;;;;;;;3.40;1.37;;;;;;;23.36;51.21;102353.50;5134522;27;20761;-64
2022/07/12 01:32:34;;;;;;;2.97;1.00;;;;;;;23.34;51.20;102355.44;5135620;27;20273;-65
2022/07/12 01:35:05;;;;;;;2.40;0.98;;;;;;;23.33;51.23;102353.75;5135584;27;20042;-64
2022/07/12 01:37:33;;;;;;;2.55;1.10;;;;;;;23.33;50.69;102361.72;5134875;27;20025;-65
2022/07/12 01:40:00;;;;;;;2.05;1.00;;;;;;;23.31;51.09;102359.19;5135060;27;20031;-64
2022/07/12 01:42:28;;;;;;;2.55;1.10;;;;;;;23.31;50.68;102353.88;5135499;27;20027;-65
2022/07/12 01:44:56;;;;;;;2.20;1.10;;;;;;;23.15;50.90;102335.63;5134139;27;20030;-65
2022/07/12 01:47:24;;;;;;;2.17;1.00;;;;;;;23.30;51.04;102352.16;5135443;27;20034;-65
2022/07/12 01:49:54;;;;;;;3.22;1.17;;;;;;;23.31;50.67;102353.88;5135279;27;20033;-65
2022/07/12 01:52:20;;;;;;;2.45;1.08;;;;;;;23.30;51.00;102341.53;5134504;27;20034;-66
2022/07/12 01:54:46;;;;;;;1.92;0.90;;;;;;;23.30;51.03;102346.00;5135255;27;20020;-65
2022/07/12 01:57:12;;;;;;;2.95;1.25;;;;;;;23.27;50.86;102347.09;5134684;27;20041;-64
2022/07/12 01:59:43;;;;;;;2.20;1.05;;;;;;;23.26;50.84;102342.75;5134381;27;20450;-64
2022/07/12 02:02:08;;;;;;;2.00;1.13;;;;;;;23.27;50.93;102340.94;5134682;27;20140;-65
2022/07/12 02:04:35;;;;;;;2.90;1.17;;;;;;;23.26;50.60;102345.41;5134280;27;20463;-64
2022/07/12 02:07:00;;;;;;;2.60;1.10;;;;;;;23.27;50.63;102344.44;5134544;27;20019;-65
2022/07/12 02:09:26;;;;;;;2.90;1.00;;;;;;;23.27;50.64;102335.63;5134726;27;20347;-65
2022/07/12 02:11:52;;;;;;;2.97;1.05;;;;;;;23.25;50.69;102338.41;5133516;27;20063;-65
2022/07/12 02:14:18;;;;;;;3.00;1.10;;;;;;;23.27;50.93;102346.25;5134981;27;20100;-64
2022/07/12 02:16:43;;;;;;;1.58;0.93;;;;;;;23.24;50.54;102343.84;5134807;27;20027;-64
2022/07/12 02:19:10;;;;;;;2.40;1.40;;;;;;;23.23;50.55;102337.69;5133676;27;20023;-65
2022/07/12 02:21:36;;;;;;;2.92;1.10;;;;;;;23.23;50.72;102340.34;5134998;27;20023;-65
2022/07/12 02:24:01;;;;;;;2.13;1.15;;;;;;;23.23;50.62;102337.69;5134488;27;20023;-65
2022/07/12 02:26:27;;;;;;;2.03;1.00;;;;;;;23.23;50.67;102332.34;5133635;27;20064;-65
2022/07/12 02:28:53;;;;;;;2.55;1.10;;;;;;;23.23;50.73;102334.19;5134270;27;20027;-65
2022/07/12 02:31:18;;;;;;;2.40;1.17;;;;;;;23.23;50.66;102332.34;5134583;27;20023;-64
2022/07/12 02:33:46;;;;;;;2.25;1.20;;;;;;;23.23;50.66;102336.84;5133628;27;20027;-64
2022/07/12 02:36:12;;;;;;;2.20;1.10;;;;;;;23.21;50.81;102342.28;5134075;27;20417;-65
2022/07/12 02:38:37;;;;;;;2.40;1.10;;;;;;;23.22;50.47;102343.94;5134301;27;20019;-65
2022/07/12 02:41:02;;;;;;;2.10;1.00;;;;;;;23.19;50.72;102344.19;5132980;27;20337;-65
2022/07/12 02:43:33;;;;;;;1.95;1.00;;;;;;;23.20;50.62;102345.06;5134305;27;20455;-64
2022/07/12 02:46:08;;;;;;;2.28;1.23;;;;;;;23.17;50.80;102340.81;5134129;27;20027;-65
2022/07/12 02:48:34;;;;;;;2.95;1.13;;;;;;;23.18;50.47;102345.19;5133434;27;20023;-65
2022/07/12 02:51:00;;;;;;;2.58;1.20;;;;;;;23.18;50.73;102350.50;5133961;27;20102;-65
2022/07/12 02:53:28;;;;;;;2.30;1.10;;;;;;;23.17;50.67;102349.63;5134101;27;20031;-64
2022/07/12 02:55:56;;;;;;;3.85;1.30;;;;;;;23.16;50.61;102347.97;5132985;27;20057;-65
2022/07/12 02:58:24;;;;;;;2.83;1.20;;;;;;;23.16;50.37;102347.97;5134159;27;20037;-64
2022/07/12 03:00:49;;;;;;;2.65;1.15;;;;;;;23.15;50.52;102346.25;5132805;27;20493;-65
2022/07/12 03:03:17;;;;;;;3.40;1.30;;;;;;;23.16;50.63;102347.09;5134028;27;20035;-64
2022/07/12 03:05:43;;;;;;;2.42;1.20;;;;;;;23.15;50.42;102345.44;5132968;27;20110;-64
2022/07/12 03:08:10;;;;;;;2.90;1.20;;;;;;;23.14;50.68;102344.56;5132894;27;20164;-64
2022/07/12 03:10:36;;;;;;;2.47;1.20;;;;;;;23.13;50.41;102340.22;5133527;27;20183;-65
2022/07/12 03:13:01;;;;;;;2.63;1.20;;;;;;;23.13;50.38;102336.69;5133629;27;20051;-65
2022/07/12 03:15:27;;;;;;;2.70;1.20;;;;;;;23.11;50.58;102339.47;5133015;27;20382;-65
2022/07/12 03:17:53;;;;;;;2.00;1.13;;;;;;;23.09;50.57;102336.09;5133600;27;20098;-65
2022/07/12 03:20:18;;;;;;;2.40;1.08;;;;;;;23.11;50.28;102336.81;5133392;27;20534;-65
2022/07/12 03:22:46;;;;;;;2.77;1.20;;;;;;;23.10;50.09;102339.63;5132839;27;20486;-64
2022/07/12 03:25:12;;;;;;;3.40;1.30;;;;;;;23.11;50.20;102334.16;5133655;27;20264;-65
2022/07/12 03:27:38;;;;;;;2.17;1.17;;;;;;;23.10;50.60;102337.81;5133751;28;20026;-65
2022/07/12 03:30:06;;;;;;;3.33;1.30;;;;;;;23.10;50.27;102337.81;5132691;28;20027;-65
2022/07/12 03:32:32;;;;;;;2.00;1.02;;;;;;;23.11;50.49;102338.66;5133665;28;20034;-65
2022/07/12 03:34:57;;;;;;;2.00;1.02;;;;;;;23.11;50.43;102338.66;5133292;28;20019;-65
2022/07/12 03:37:41;;;;;;;2.25;1.20;;;;;;;23.09;49.95;102338.78;5132748;28;20024;-64
2022/07/12 03:40:07;;;;;;;3.13;1.30;;;;;;;23.11;50.34;102338.66;5133368;28;20030;-64
2022/07/12 03:42:32;;;;;;;2.65;1.27;;;;;;;23.10;50.33;102340.47;5133334;28;20115;-65
2022/07/12 03:45:00;;;;;;;2.13;1.03;;;;;;;23.10;50.24;102351.09;5132385;28;20435;-65
2022/07/12 03:47:25;;;;;;;2.38;1.15;;;;;;;23.10;50.17;102345.78;5133323;28;20648;-65
2022/07/12 03:49:51;;;;;;;2.30;1.40;;;;;;;23.10;50.11;102350.28;5132617;28;20019;-64
2022/07/12 03:52:16;;;;;;;2.05;1.10;;;;;;;23.10;50.41;102343.13;5133452;28;20283;-65
2022/07/12 03:54:42;;;;;;;2.43;1.10;;;;;;;23.09;50.44;102348.56;5133528;28;20375;-65
2022/07/12 03:57:13;;;;;;;2.40;1.10;;;;;;;23.09;50.05;102354.72;5132427;28;20271;-65
2022/07/12 03:59:38;;;;;;;1.85;1.00;;;;;;;23.08;50.16;102350.41;5133303;28;20267;-65
2022/07/12 04:02:06;;;;;;;3.90;1.10;;;;;;;23.09;50.12;102348.56;5132913;28;20038;-65
2022/07/12 04:04:32;;;;;;;1.85;1.05;;;;;;;23.06;50.26;102341.63;5132249;28;20517;-64
2022/07/12 04:06:57;;;;;;;2.67;1.10;;;;;;;23.08;49.91;102342.41;5133011;28;20027;-64
2022/07/12 04:09:22;;;;;;;2.70;1.07;;;;;;;23.08;50.32;102333.56;5133109;28;20076;-64
2022/07/12 04:11:48;;;;;;;2.53;1.27;;;;;;;23.08;49.98;102333.56;5132065;28;20288;-65
2022/07/12 04:14:16;;;;;;;2.90;1.20;;;;;;;23.04;49.96;102321.47;5132915;28;20038;-65
2022/07/12 04:16:42;;;;;;;2.28;1.30;;;;;;;23.08;50.00;102336.22;5133072;28;20094;-64
2022/07/12 04:19:08;;;;;;;5.10;1.50;;;;;;;23.08;50.29;102339.75;5131844;28;20102;-65
2022/07/12 04:21:34;;;;;;;2.60;1.30;;;;;;;23.07;50.26;102334.53;5132853;28;20467;-65
2022/07/12 04:23:59;;;;;;;3.10;1.30;;;;;;;23.10;50.32;102344.94;5132791;28;20113;-65
2022/07/12 04:26:25;;;;;;;1.90;1.10;;;;;;;23.09;50.17;102357.38;5132377;28;20106;-65
2022/07/12 04:28:50;;;;;;;3.10;1.35;;;;;;;23.08;50.66;102347.72;5132785;28;20020;-65
2022/07/12 04:31:15;;;;;;;2.30;1.30;;;;;;;23.08;50.49;102344.22;5134172;27;20114;-65
2022/07/12 04:33:40;;;;;;;2.10;1.10;;;;;;;23.08;50.24;102344.22;5135615;27;20259;-65
2022/07/12 04:36:06;;;;;;;3.22;1.30;;;;;;;23.09;50.13;102352.06;5136388;27;20279;-65
2022/07/12 04:38:32;;;;;;;2.10;1.10;;;;;;;23.08;50.23;102354.84;5136343;27;20016;-65
2022/07/12 04:40:57;;;;;;;2.63;1.27;;;;;;;23.07;50.25;102355.81;5135485;27;20023;-64
2022/07/12 04:43:24;;;;;;;2.00;1.20;;;;;;;23.09;50.09;102351.22;5136527;27;20039;-65
2022/07/12 04:45:52;;;;;;;2.15;1.15;;;;;;;23.05;50.31;102347.94;5136186;27;20027;-65
2022/07/12 04:48:17;;;;;;;3.55;1.23;;;;;;;23.09;50.42;102357.38;5135360;27;20042;-65
2022/07/12 04:50:43;;;;;;;2.77;1.30;;;;;;;23.09;50.35;102357.38;5136389;27;20039;-64
2022/07/12 04:53:09;;;;;;;2.50;1.30;;;;;;;23.04;50.32;102342.75;5135894;27;20755;-65
2022/07/12 04:55:35;;;;;;;3.30;1.27;;;;;;;23.10;50.22;102360.91;5136111;27;20088;-64
2022/07/12 04:58:04;;;;;;;2.75;1.30;;;;;;;23.10;50.47;102361.75;5135972;27;20475;-64
2022/07/12 05:00:29;;;;;;;2.88;1.25;;;;;;;23.11;50.12;102359.91;5135409;27;20019;-65
2022/07/12 05:02:55;;;;;;;3.10;1.40;;;;;;;23.10;50.27;102356.44;5135548;27;20054;-65
2022/07/12 05:05:20;;;;;;;2.95;1.42;;;;;;;23.12;50.31;102356.31;5136180;27;20463;-64
2022/07/12 05:07:46;;;;;;;2.97;1.48;;;;;;;23.13;50.28;102360.63;5135476;27;20019;-65
2022/07/12 05:10:11;;;;;;;3.60;1.65;;;;;;;23.13;50.50;102361.50;5135714;27;20465;-64
2022/07/12 05:12:37;;;;;;;2.65;1.30;;;;;;;23.14;50.19;102363.19;5136396;27;20026;-64
2022/07/12 05:15:04;;;;;;;2.25;1.17;;;;;;;23.13;50.14;102366.81;5135054;27;20023;-64
2022/07/12 05:17:29;;;;;;;4.15;1.38;;;;;;;23.15;50.43;102378.19;5135788;27;20115;-65
2022/07/12 05:19:57;;;;;;;2.47;1.30;;;;;;;23.15;50.39;102372.84;5135737;27;20054;-65
2022/07/12 05:22:22;;;;;;;2.60;1.30;;;;;;;23.17;50.60;102375.41;5135008;27;20275;-65
2022/07/12 05:24:48;;;;;;;2.10;1.30;;;;;;;23.18;50.52;102377.94;5135835;27;20023;-65
2022/07/12 05:27:14;;;;;;;2.28;1.27;;;;;;;23.18;50.43;102382.41;5135337;27;20030;-65
2022/07/12 05:29:42;;;;;;;2.63;1.45;;;;;;;22.98;50.84;102358.19;5134878;27;20030;-65
2022/07/12 05:32:08;;;;;;;3.20;1.45;;;;;;;23.19;50.52;102389.41;5135216;27;20027;-65
2022/07/12 05:34:33;;;;;;;2.95;1.60;;;;;;;23.21;50.90;102398.13;5135567;27;20034;-65
2022/07/12 05:36:58;;;;;;;3.22;1.67;;;;;;;23.21;50.60;102395.47;5134333;27;20025;-65
2022/07/12 05:39:24;;;;;;;2.42;1.40;;;;;;;23.21;50.68;102405.25;5135509;27;20114;-64
2022/07/12 05:41:49;;;;;;;4.80;3.00;;;;;;;23.11;52.72;102411.28;5134776;27;20107;-66
2022/07/12 05:44:18;;;;;;;6.78;4.10;;;;;;;22.74;53.53;102407.94;5133287;27;20041;-65
2022/07/12 05:46:45;;;;;;;7.55;4.80;;;;;;;22.44;54.48;102412.81;5135464;27;20019;-66
2022/07/12 05:49:12;;;;;;;6.05;4.10;;;;;;;22.21;55.26;102411.03;5134791;27;20023;-66
2022/07/12 05:54:21;;;;;;;4.20;2.38;;;;;;;22.34;54.54;102418.94;5135407;27;20065;-65
2022/07/12 05:56:47;;;;;;;4.53;2.40;;;;;;;22.44;54.15;102428.75;5134138;27;20031;-66
2022/07/12 05:59:12;;;;;;;3.38;2.08;;;;;;;22.58;53.90;102424.22;5134752;27;20422;-66
2022/07/12 06:01:46;;;;;;;3.53;2.07;;;;;;;22.71;53.72;102424.13;5135068;27;20107;-66
2022/07/12 06:04:12;;;;;;;5.28;2.55;;;;;;;22.79;53.39;102421.72;5133805;27;20263;-67
2022/07/12 06:06:37;;;;;;;4.20;2.43;;;;;;;22.88;53.03;102423.69;5134890;27;20098;-66
2022/07/12 06:09:03;;;;;;;4.13;2.35;;;;;;;22.93;53.27;102426.81;5134631;27;20724;-65
2022/07/12 06:11:34;;;;;;;4.93;2.05;;;;;;;22.98;52.87;102427.31;5133727;27;20047;-66
2022/07/12 06:13:59;;;;;;;5.00;2.10;;;;;;;23.04;52.64;102427.81;5134543;27;20027;-66
2022/07/12 06:16:25;;;;;;;4.10;2.03;;;;;;;23.07;52.94;102430.25;5134647;27;20075;-66
2022/07/12 06:18:50;;;;;;;4.72;1.90;;;;;;;23.11;52.53;102432.56;5133424;27;20118;-66
2022/07/12 06:21:15;;;;;;;4.15;2.10;;;;;;;23.13;52.80;102432.44;5134413;27;20031;-67
2022/07/12 06:23:41;;;;;;;3.17;1.77;;;;;;;23.15;52.87;102441.16;5134503;27;20478;-66
2022/07/12 06:26:06;;;;;;;4.28;1.80;;;;;;;23.17;52.69;102436.56;5133240;27;20268;-66
2022/07/12 06:28:31;;;;;;;4.15;1.90;;;;;;;23.19;52.30;102437.28;5134199;27;20023;-66
2022/07/12 06:30:56;;;;;;;3.50;1.90;;;;;;;23.23;52.27;102433.44;5134213;27;20027;-65
2022/07/12 06:33:22;;;;;;;4.25;2.28;;;;;;;23.26;52.06;102440.34;5133653;27;20313;-65
2022/07/12 06:35:47;;;;;;;3.95;1.63;;;;;;;23.26;52.55;102435.84;5133214;27;20046;-67
2022/07/12 06:38:12;;;;;;;3.30;1.80;;;;;;;23.28;52.41;102433.91;5133924;27;20035;-66
2022/07/12 06:40:37;;;;;;;3.20;1.83;;;;;;;23.32;52.34;102435.38;5133293;27;20260;-65
2022/07/12 06:43:08;;;;;;;4.05;2.00;;;;;;;23.32;52.45;102442.47;5125989;27;20366;-67
2022/07/12 06:45:33;;;;;;;4.43;2.13;;;;;;;23.36;52.28;102443.94;5134137;27;20424;-66
2022/07/12 06:47:59;;;;;;;4.30;2.20;;;;;;;23.36;52.30;102438.63;5133268;27;20015;-66
2022/07/12 06:50:27;;;;;;;3.87;2.07;;;;;;;23.35;51.93;102437.78;5134179;27;20466;-67
2022/07/12 06:52:52;;;;;;;3.58;1.90;;;;;;;23.22;52.47;102437.03;5133164;27;20338;-68
2022/07/12 06:55:18;;;;;;;4.40;2.30;;;;;;;23.09;53.06;102439.81;5133530;27;20527;-67
2022/07/12 06:57:43;;;;;;;5.40;3.28;;;;;;;23.10;53.58;102443.34;5134137;27;20466;-64
2022/07/12 07:00:08;;;;;;;5.27;2.70;;;;;;;23.10;53.34;102436.19;5133088;27;20428;-68
2022/07/12 07:02:34;;;;;;;5.53;3.00;;;;;;;23.13;53.92;102438.63;5133881;27;20275;-67
2022/07/12 07:04:59;;;;;;;7.68;5.63;;;;;;;23.15;53.81;102441.16;5133474;27;20026;-65
2022/07/12 07:07:24;;;;;;;10.45;6.28;;;;;;;23.14;54.62;102436.81;5133278;27;20015;-68
2022/07/12 07:09:52;;;;;;;8.32;6.25;;;;;;;23.03;55.26;102437.59;5133406;27;20015;-68
2022/07/12 07:12:17;;;;;;;7.30;5.93;;;;;;;22.95;55.42;102442.66;5093141;28;20441;-67
2022/07/12 07:14:44;;;;;;;10.32;5.63;;;;;;;22.88;54.35;102439.63;5092567;28;20048;-68
2022/07/12 07:17:09;;;;;;;6.97;5.30;;;;;;;22.79;54.80;102441.16;5092587;28;20150;-68
2022/07/12 07:19:42;;;;;;;9.73;5.70;;;;;;;22.75;55.18;102437.06;5092918;28;20298;-70
2022/07/12 07:22:07;;;;;;;7.30;5.07;;;;;;;22.70;55.54;102435.72;5091798;28;20284;-67
2022/07/12 07:24:32;;;;;;;6.33;4.13;;;;;;;22.67;56.57;102441.25;5092756;28;20121;-67
2022/07/12 07:27:01;;;;;;;5.68;4.10;;;;;;;22.63;56.04;102438.00;5092784;28;20020;-66
2022/07/12 07:32:13;;;;;;;5.53;4.28;;;;;;;22.64;55.26;102434.38;5092539;28;20115;-67
2022/07/12 07:34:38;;;;;;;7.82;3.65;;;;;;;22.66;56.33;102440.44;5092725;28;20115;-71
2022/07/12 07:37:04;;;;;;;4.60;3.05;;;;;;;22.71;55.48;102443.56;5090435;28;20123;-72
2022/07/12 07:39:29;;;;;;;4.30;2.67;;;;;;;22.73;54.45;102439.00;5092860;28;20028;-71
2022/07/12 07:41:54;;;;;;;5.07;2.83;;;;;;;22.79;53.95;102440.34;5092228;28;20020;-69
2022/07/12 07:44:20;;;;;;;4.60;2.67;;;;;;;22.82;53.73;102435.63;5092070;28;20281;-71
2022/07/12 07:46:45;;;;;;;4.47;2.50;;;;;;;22.91;53.68;102433.25;5092654;28;20110;-69
2022/07/12 07:49:10;;;;;;;3.93;2.10;;;;;;;22.93;53.85;102428.66;5091603;28;20383;-69
2022/07/12 07:51:36;;;;;;;3.97;2.38;;;;;;;22.95;53.38;102424.06;5092544;28;20383;-70
2022/07/12 07:54:02;;;;;;;3.97;2.20;;;;;;;22.98;54.34;102427.31;5092422;28;20031;-69
2022/07/12 07:56:28;;;;;;;3.88;2.13;;;;;;;22.99;53.20;102429.00;5091803;28;20344;-68
2022/07/12 07:58:53;;;;;;;5.05;2.50;;;;;;;22.99;53.27;102426.34;5092114;28;20490;-68
2022/07/12 08:01:18;;;;;;;4.57;2.45;;;;;;;23.00;52.98;102424.53;5092216;28;20157;-68
2022/07/12 08:03:44;;;;;;;3.77;2.13;;;;;;;23.05;53.84;102426.84;5091385;28;20032;-68
2022/07/12 08:06:09;;;;;;;5.97;2.30;;;;;;;23.10;53.53;102433.53;5094734;28;20369;-70
2022/07/12 08:08:34;;;;;;;4.37;2.40;;;;;;;23.16;53.36;102432.19;5096587;28;20268;-70
2022/07/12 08:10:59;;;;;;;4.25;2.30;;;;;;;23.20;53.09;102436.31;5114294;27;20042;-69
2022/07/12 08:13:25;;;;;;;4.13;2.50;;;;;;;23.20;52.87;102441.63;5137089;27;20031;-71
2022/07/12 08:15:50;;;;;;;3.38;2.30;;;;;;;23.19;54.45;102434.63;5136911;27;20272;-72
2022/07/12 08:18:16;;;;;;;4.30;2.60;;;;;;;23.14;53.03;102436.81;5136356;27;20047;-68
2022/07/12 08:20:41;;;;;;;5.15;3.08;;;;;;;23.12;52.44;102433.41;5136878;27;20023;-67
2022/07/12 08:23:07;;;;;;;4.10;2.83;;;;;;;23.08;52.76;102431.94;5136621;27;20069;-68
2022/07/12 08:25:32;;;;;;;4.60;2.50;;;;;;;23.05;53.68;102426.84;5136279;27;20286;-68
2022/07/12 08:27:57;;;;;;;4.80;2.80;;;;;;;23.04;53.48;102426.00;5136519;27;20023;-68
2022/07/12 08:30:23;;;;;;;4.55;2.80;;;;;;;23.03;54.31;102432.28;5136891;27;20299;-68
2022/07/12 08:32:48;;;;;;;4.20;2.50;;;;;;;23.05;53.51;102441.00;5136156;27;20042;-68
2022/07/12 08:35:14;;;;;;;5.33;2.70;;;;;;;23.04;53.06;102438.47;5136444;27;20160;-68
2022/07/12 08:37:40;;;;;;;4.35;2.60;;;;;;;23.07;53.61;102443.53;5136040;27;20276;-68
2022/07/12 08:40:06;;;;;;;4.63;2.80;;;;;;;23.08;52.88;102443.47;5135805;27;20403;-69
2022/07/12 08:42:32;;;;;;;4.55;2.90;;;;;;;23.09;52.47;102441.63;5136715;27;20034;-70
2022/07/12 08:44:58;;;;;;;4.50;2.95;;;;;;;23.08;52.79;102438.13;5136358;27;20023;-68
2022/07/12 08:47:24;;;;;;;4.30;2.72;;;;;;;23.08;53.01;102446.13;5135789;27;20050;-68
2022/07/12 08:50:16;;;;;;;6.13;2.92;;;;;;;23.08;53.12;102448.78;5136110;27;20481;-68
2022/07/12 08:52:51;;;;;;;5.05;2.72;;;;;;;23.09;53.20;102450.44;5134753;27;20027;-68
2022/07/12 08:55:20;;;;;;;4.65;2.90;;;;;;;23.14;53.20;102455.41;5136637;27;20027;-67
2022/07/12 08:57:46;;;;;;;5.63;3.10;;;;;;;23.16;53.61;102453.47;5136424;27;20386;-68
2022/07/12 09:00:12;;;;;;;4.63;2.85;;;;;;;23.22;53.84;102458.31;5135300;27;20015;-67
2022/07/12 09:02:50;;;;;;;5.80;2.75;;;;;;;23.24;53.71;102459.06;5136443;27;20029;-67
2022/07/12 09:05:21;;;;;;;6.75;3.33;;;;;;;23.27;53.75;102448.16;5136391;27;20039;-69
2022/07/12 09:07:50;;;;;;;5.47;3.95;;;;;;;23.35;53.30;102458.19;5135613;27;20023;-72
2022/07/12 09:10:17;;;;;;;5.00;3.70;;;;;;;23.43;52.73;102457.59;5135932;27;20371;-68
2022/07/12 09:12:43;;;;;;;5.15;3.28;;;;;;;23.51;52.20;102455.19;5136049;27;20039;-69
2022/07/12 09:15:20;;;;;;;7.55;4.20;;;;;;;23.58;52.38;102455.56;5134843;27;20100;-69
2022/07/12 09:17:55;;;;;;;5.53;4.72;;;;;;;23.66;52.33;102450.47;5135598;27;20019;-67
2022/07/12 09:20:25;;;;;;;6.38;3.75;;;;;;;23.71;51.80;102454.44;5136177;27;20027;-66
2022/07/12 09:22:53;;;;;;;5.40;3.65;;;;;;;23.73;51.59;102451.66;5135156;27;20019;-67
2022/07/12 09:25:18;;;;;;;6.80;4.10;;;;;;;23.78;51.94;102460.09;5136000;27;20034;-66
2022/07/12 09:27:52;;;;;;;6.35;4.38;;;;;;;23.78;51.59;102454.78;5135226;27;20027;-66
2022/07/12 09:30:18;;;;;;;5.32;4.20;;;;;;;23.81;51.07;102448.38;5135990;27;20025;-65
2022/07/12 09:36:12;;;;;;;8.30;4.10;;;;;;;23.80;51.97;102444.88;5125862;27;20091;-64
2022/07/12 09:39:00;;;;;;;6.70;4.78;;;;;;;23.81;51.60;102433.25;5135897;27;20514;-64
2022/07/12 09:41:26;;;;;;;6.47;4.13;;;;;;;23.86;51.71;102439.09;5135673;27;20027;-64
2022/07/12 09:43:52;;;;;;;5.82;4.32;;;;;;;23.84;52.37;102440.19;5134393;27;20063;-65
2022/07/12 09:46:18;;;;;;;5.85;4.22;;;;;;;23.83;52.06;102434.03;5135596;27;20038;-64
2022/07/12 09:48:46;;;;;;;6.30;4.30;;;;;;;23.83;52.15;102447.31;5134826;27;20023;-65
2022/07/12 09:51:19;;;;;;;6.05;4.32;;;;;;;23.84;52.79;102441.00;5135124;27;20396;-66
2022/07/12 09:53:46;;;;;;;6.40;4.53;;;;;;;23.86;52.41;102440.88;5135378;27;20378;-63
2022/07/12 09:56:14;;;;;;;9.00;4.72;;;;;;;23.87;53.09;102437.25;5134191;27;20031;-63
2022/07/12 09:58:47;;;;;;;5.90;4.18;;;;;;;23.87;53.17;102432.78;5135088;27;20023;-66
2022/07/12 10:01:14;;;;;;;6.28;4.22;;;;;;;23.88;53.41;102430.97;5135089;27;20015;-63
2022/07/12 10:03:40;;;;;;;7.28;4.80;;;;;;;23.88;52.94;102433.66;5134422;27;20023;-60
2022/07/12 10:06:07;;;;;;;6.38;4.43;;;;;;;23.87;52.94;102426.63;5134810;27;20102;-61
2022/07/12 10:08:32;;;;;;;6.75;3.92;;;;;;;23.87;52.49;102432.78;5135177;27;20099;-61
2022/07/12 10:10:58;;;;;;;7.10;4.18;;;;;;;23.88;52.90;102429.16;5133782;27;20071;-61
2022/07/12 10:13:24;;;;;;;7.38;4.15;;;;;;;23.87;52.86;102424.78;5134866;27;20135;-61
2022/07/12 10:15:51;;;;;;;8.90;4.85;;;;;;;23.87;52.70;102422.13;5134740;27;20027;-61
2022/07/12 10:18:20;;;;;;;5.68;4.18;;;;;;;23.86;52.28;102415.13;5134086;27;20489;-61
2022/07/12 10:20:49;;;;;;;5.28;3.95;;;;;;;23.88;52.47;102425.66;5134795;27;20023;-61
2022/07/12 10:23:36;;;;;;;5.35;3.78;;;;;;;23.87;52.65;102410.66;5134694;27;20027;-61
2022/07/12 10:26:38;;;;;;;5.25;3.83;;;;;;;23.87;52.08;102419.47;5133805;27;20030;-61
2022/07/12 10:29:09;;;;;;;8.80;4.38;;;;;;;23.86;52.51;102412.47;5127237;27;20057;-61
2022/07/12 10:31:36;;;;;;;7.03;4.18;;;;;;;23.84;52.23;102411.72;5133835;27;20031;-63
2022/07/12 10:34:13;;;;;;;5.90;4.35;;;;;;;23.84;52.33;102414.38;5134137;27;20023;-64
2022/07/12 10:36:54;;;;;;;8.30;3.90;;;;;;;23.85;52.09;102412.59;5134627;27;20027;-65
2022/07/12 10:39:20;;;;;;;5.70;4.20;;;;;;;23.83;52.44;102409.16;5133789;27;20027;-64
2022/07/12 10:42:06;;;;;;;5.82;4.13;;;;;;;23.84;52.30;102416.22;5134424;27;20090;-63
2022/07/12 10:44:36;;;;;;;6.40;4.22;;;;;;;23.81;52.32;102417.25;5134240;27;20023;-63
2022/07/12 10:47:06;;;;;;;5.80;4.00;;;;;;;23.81;52.58;102414.59;5133461;27;20019;-62
2022/07/12 10:49:33;;;;;;;5.97;3.88;;;;;;;23.80;52.28;102412.94;5134174;27;20502;-62
2022/07/12 10:52:11;;;;;;;5.45;3.63;;;;;;;23.80;52.35;102409.41;5133130;27;20035;-63
2022/07/12 10:54:57;;;;;;;5.00;3.67;;;;;;;23.80;52.52;102409.41;5133977;27;20110;-62
2022/07/12 10:57:50;;;;;;;5.25;3.50;;;;;;;23.80;52.60;102420.91;5115995;27;20023;-62
2022/07/12 11:00:18;;;;;;;4.70;3.70;;;;;;;23.80;52.15;102406.75;5133605;27;20019;-62
2022/07/12 11:02:44;;;;;;;5.97;3.50;;;;;;;23.79;52.35;102408.56;5134084;27;20114;-67
2022/07/12 11:05:09;;;;;;;5.57;3.58;;;;;;;23.78;52.41;102406.88;5133792;27;20050;-63
2022/07/12 11:07:35;;;;;;;4.43;3.42;;;;;;;23.79;52.43;102416.56;5133314;27;20051;-63
2022/07/12 11:10:00;;;;;;;5.88;3.63;;;;;;;23.80;52.54;102415.59;5133646;27;20020;-62
2022/07/12 11:12:30;;;;;;;4.97;3.60;;;;;;;23.80;52.53;102410.28;5134142;27;20031;-62
2022/07/12 11:14:55;;;;;;;5.95;3.50;;;;;;;23.81;52.45;102411.09;5132840;27;20023;-62
2022/07/12 11:17:26;;;;;;;4.80;3.28;;;;;;;23.82;52.31;102410.16;5133821;27;20026;-62
2022/07/12 11:20:09;;;;;;;5.15;3.25;;;;;;;23.80;52.53;102398.75;5133420;27;20102;-63
2022/07/12 11:22:36;;;;;;;5.60;3.67;;;;;;;23.81;52.87;102403.97;5133515;27;20023;-64
2022/07/12 11:25:02;;;;;;;7.60;3.97;;;;;;;23.81;52.73;102408.44;5133627;27;20027;-62
2022/07/12 11:27:28;;;;;;;4.50;3.30;;;;;;;23.82;52.58;102403.00;5133052;27;20026;-62
2022/07/12 11:30:04;;;;;;;5.90;3.80;;;;;;;23.83;52.88;102402.06;5133548;28;20031;-61
2022/07/12 11:32:41;;;;;;;5.07;3.47;;;;;;;23.83;52.93;102393.19;5133606;28;20478;-65
2022/07/12 11:35:19;;;;;;;6.53;3.85;;;;;;;23.82;52.63;102392.34;5132661;28;20106;-63